TimeCDT,TemperatureF,Dew PointF,Humidity,Sea Level PressureIn,VisibilityMPH,Wind Direction,Wind SpeedMPH,Gust SpeedMPH,PrecipitationIn,Events,Conditions,WindDirDegrees,DateUTC
12:35 AM,70.3,57.6,64,29.73,10.0,SSE,11.5,20.7,N/A,,Clear,150,2013-03-17 05:35:00
12:55 AM,69.8,58.1,66,29.74,10.0,SSE,10.4,-,N/A,,Clear,150,2013-03-17 05:55:00
1:15 AM,69.3,58.5,68,29.74,10.0,SSE,8.1,-,N/A,,Clear,150,2013-03-17 06:15:00
1:35 AM,68.7,59.0,71,29.74,10.0,SSE,11.5,-,N/A,,Clear,150,2013-03-17 06:35:00
1:55 AM,68.2,59.2,73,29.74,10.0,SSE,12.7,-,N/A,,Clear,160,2013-03-17 06:55:00
2:15 AM,68.0,59.4,74,29.74,10.0,SSE,10.4,-,N/A,,Clear,160,2013-03-17 07:15:00
2:35 AM,67.6,59.5,75,29.74,10.0,SSE,9.2,-,N/A,,Clear,160,2013-03-17 07:35:00
2:55 AM,67.3,59.4,76,29.74,10.0,South,12.7,-,N/A,,Clear,170,2013-03-17 07:55:00
3:15 AM,67.1,59.4,76,29.74,10.0,South,11.5,-,N/A,,Clear,170,2013-03-17 08:15:00
3:35 AM,66.6,59.4,78,29.74,10.0,South,5.8,-,N/A,,Clear,180,2013-03-17 08:35:00
3:55 AM,66.7,59.5,78,29.74,10.0,South,5.8,-,N/A,,Mostly Cloudy,190,2013-03-17 08:55:00
4:15 AM,67.1,59.5,77,29.75,10.0,Calm,Calm,-,N/A,,Overcast,0,2013-03-17 09:15:00
4:35 AM,66.7,59.4,77,29.74,10.0,SSE,6.9,-,N/A,,Overcast,150,2013-03-17 09:35:00
4:55 AM,66.2,59.2,78,29.74,10.0,SSE,8.1,-,N/A,,Scattered Clouds,150,2013-03-17 09:55:00
5:15 AM,66.2,59.0,78,29.73,10.0,SSE,6.9,-,N/A,,Clear,150,2013-03-17 10:15:00
5:35 AM,65.8,59.2,79,29.73,10.0,SSE,6.9,-,N/A,,Mostly Cloudy,160,2013-03-17 10:35:00
5:55 AM,66.2,59.4,79,29.74,10.0,SW,4.6,-,N/A,,Overcast,220,2013-03-17 10:55:00
6:15 AM,63.1,50.5,63,29.76,10.0,WNW,10.4,18.4,N/A,,Overcast,290,2013-03-17 11:15:00
6:35 AM,61.2,47.3,60,29.77,10.0,WNW,9.2,-,N/A,,Overcast,300,2013-03-17 11:35:00
6:55 AM,60.3,46.6,61,29.78,10.0,NW,9.2,-,N/A,,Overcast,310,2013-03-17 11:55:00
7:35 AM,58.1,43.9,59,29.80,10.0,WNW,11.5,-,N/A,,Overcast,290,2013-03-17 12:35:00
7:55 AM,57.2,43.5,60,29.80,10.0,WNW,9.2,-,N/A,,Overcast,290,2013-03-17 12:55:00
8:15 AM,56.7,43.2,61,29.80,10.0,WNW,9.2,-,N/A,,Overcast,300,2013-03-17 13:15:00
8:35 AM,56.5,43.2,61,29.82,10.0,WNW,9.2,-,N/A,,Overcast,300,2013-03-17 13:35:00
8:55 AM,56.3,42.8,61,29.82,10.0,WNW,10.4,-,N/A,,Overcast,300,2013-03-17 13:55:00
9:35 AM,55.8,42.1,60,29.84,10.0,WNW,9.2,-,N/A,,Overcast,300,2013-03-17 14:35:00
9:55 AM,55.8,42.3,60,29.84,10.0,WNW,10.4,-,N/A,,Overcast,290,2013-03-17 14:55:00
10:15 AM,56.3,42.3,59,29.84,10.0,WNW,9.2,-,N/A,,Overcast,300,2013-03-17 15:15:00
10:35 AM,56.5,42.3,59,29.84,10.0,NW,5.8,-,N/A,,Overcast,320,2013-03-17 15:35:00
10:55 AM,57.9,43.0,58,29.84,10.0,NW,5.8,-,N/A,,Overcast,310,2013-03-17 15:55:00
11:15 AM,57.9,42.4,56,29.83,10.0,WNW,8.1,-,N/A,,Overcast,300,2013-03-17 16:15:00
11:35 AM,59.4,43.2,55,29.83,10.0,WNW,6.9,-,N/A,,Overcast,290,2013-03-17 16:35:00
11:55 AM,59.9,43.5,55,29.83,10.0,West,8.1,-,N/A,,Overcast,270,2013-03-17 16:55:00
12:15 PM,60.6,43.0,52,29.82,10.0,West,9.2,-,N/A,,Overcast,270,2013-03-17 17:15:00
12:35 PM,61.0,43.5,53,29.82,10.0,West,10.4,-,N/A,,Overcast,270,2013-03-17 17:35:00
12:55 PM,61.0,43.5,53,29.82,10.0,West,9.2,-,N/A,,Overcast,270,2013-03-17 17:55:00
1:15 PM,61.9,43.7,51,29.81,10.0,WNW,8.1,-,N/A,,Overcast,300,2013-03-17 18:15:00
1:35 PM,63.0,44.4,51,29.80,10.0,WNW,8.1,-,N/A,,Overcast,290,2013-03-17 18:35:00
1:55 PM,64.0,44.2,49,29.79,10.0,WNW,4.6,-,N/A,,Mostly Cloudy,300,2013-03-17 18:55:00
2:15 PM,64.9,45.5,49,29.77,10.0,West,3.5,-,N/A,,Mostly Cloudy,260,2013-03-17 19:15:00
2:35 PM,66.9,46.6,48,29.77,10.0,WSW,5.8,-,N/A,,Overcast,240,2013-03-17 19:35:00
2:55 PM,66.9,46.8,48,29.75,10.0,WSW,5.8,-,N/A,,Overcast,240,2013-03-17 19:55:00
3:35 PM,69.6,48.7,47,29.74,10.0,South,5.8,-,N/A,,Mostly Cloudy,190,2013-03-17 20:35:00
3:55 PM,70.7,50.5,49,29.73,10.0,South,5.8,-,N/A,,Scattered Clouds,180,2013-03-17 20:55:00
4:15 PM,72.0,51.1,48,29.72,10.0,SW,9.2,-,N/A,,Scattered Clouds,230,2013-03-17 21:15:00
4:35 PM,72.1,50.0,46,29.72,10.0,SW,9.2,-,N/A,,Clear,230,2013-03-17 21:35:00
4:55 PM,72.5,48.7,43,29.71,10.0,West,5.8,-,N/A,,Clear,270,2013-03-17 21:55:00
5:15 PM,72.9,48.7,42,29.71,10.0,WSW,8.1,-,N/A,,Clear,240,2013-03-17 22:15:00
5:35 PM,72.9,48.9,43,29.70,10.0,SSW,5.8,-,N/A,,Clear,210,2013-03-17 22:35:00
5:55 PM,72.5,47.8,42,29.70,10.0,WSW,4.6,-,N/A,,Clear,240,2013-03-17 22:55:00
6:15 PM,72.7,47.7,41,29.70,10.0,Calm,Calm,-,N/A,,Clear,0,2013-03-17 23:15:00
6:35 PM,72.5,48.7,43,29.70,10.0,SW,4.6,-,N/A,,Clear,220,2013-03-17 23:35:00
6:55 PM,71.8,48.6,44,29.70,10.0,SW,5.8,-,N/A,,Clear,220,2013-03-17 23:55:00
7:15 PM,70.7,48.4,45,29.70,10.0,WSW,4.6,-,N/A,,Clear,240,2013-03-18 00:15:00
7:35 PM,68.5,48.0,48,29.70,10.0,SW,4.6,-,N/A,,Clear,220,2013-03-18 00:35:00
7:55 PM,66.4,48.4,52,29.70,10.0,South,3.5,-,N/A,,Clear,170,2013-03-18 00:55:00
8:15 PM,66.4,46.9,50,29.70,10.0,South,3.5,-,N/A,,Clear,180,2013-03-18 01:15:00
8:35 PM,63.9,47.3,55,29.70,10.0,Calm,Calm,-,N/A,,Clear,0,2013-03-18 01:35:00
8:55 PM,62.1,47.5,59,29.70,10.0,Calm,Calm,-,N/A,,Clear,0,2013-03-18 01:55:00
9:15 PM,62.2,47.1,58,29.71,10.0,Calm,Calm,-,N/A,,Clear,0,2013-03-18 02:15:00
9:55 PM,59.7,46.9,63,29.73,10.0,Calm,Calm,-,N/A,,Clear,0,2013-03-18 02:55:00
10:15 PM,56.3,46.8,70,29.74,10.0,Calm,Calm,-,N/A,,Clear,0,2013-03-18 03:15:00
10:35 PM,55.4,46.8,73,29.74,10.0,Calm,Calm,-,N/A,,Clear,0,2013-03-18 03:35:00
10:55 PM,54.3,46.6,75,29.73,10.0,Calm,Calm,-,N/A,,Clear,0,2013-03-18 03:55:00
11:15 PM,53.2,46.4,78,29.72,10.0,Calm,Calm,-,N/A,,Clear,0,2013-03-18 04:15:00
11:35 PM,54.7,46.4,74,29.72,10.0,Calm,Calm,-,N/A,,Clear,0,2013-03-18 04:35:00
11:55 PM,53.1,46.6,79,29.72,10.0,Calm,Calm,-,N/A,,Clear,0,2013-03-18 04:55:00